Time;durP1;ratioP1;P1;durP2;ratioP2;P2;SDS_P1;SDS_P2;PMS_P1;PMS_P2;Temp;Humidity;BMP_temperature;BMP_pressure;BME280_temperature;BME280_humidity;BME280_pressure;Samples;Min_cycle;Max_cycle;Signal;HPM_P1;HPM_P2
2022/09/09 00:01:51;;;;;;;2.60;0.73;;;16.00;99.90;;;;;;5024703;28;20040;-57
2022/09/09 00:04:31;;;;;;;2.53;0.90;;;16.00;99.90;;;;;;5021299;28;20064;-57
2022/09/09 00:07:00;;;;;;;1.73;0.60;;;15.80;99.90;;;;;;5001453;28;20037;-57
2022/09/09 00:09:29;;;;;;;2.15;0.70;;;15.80;99.90;;;;;;5001511;28;20634;-57
2022/09/09 00:12:03;;;;;;;1.77;0.70;;;15.80;99.90;;;;;;5020244;28;20137;-56
2022/09/09 00:14:44;;;;;;;1.08;0.60;;;15.80;99.90;;;;;;5023887;28;20034;-57
2022/09/09 00:17:20;;;;;;;1.38;0.70;;;15.90;99.90;;;;;;5023577;28;20044;-57
2022/09/09 00:19:56;;;;;;;2.17;0.70;;;15.70;99.90;;;;;;5013649;28;20068;-57
2022/09/09 00:22:27;;;;;;;1.77;0.73;;;15.90;99.90;;;;;;5001719;28;20073;-58
2022/09/09 00:24:55;;;;;;;1.42;0.65;;;16.10;99.90;;;;;;5003546;28;20034;-57
2022/09/09 00:27:48;;;;;;;4.28;0.90;;;16.00;99.90;;;;;;5022799;28;20045;-57
2022/09/09 00:30:25;;;;;;;1.95;0.80;;;16.20;99.90;;;;;;5024454;28;20041;-57
2022/09/09 00:32:57;;;;;;;3.22;0.70;;;16.20;99.90;;;;;;5025673;28;20048;-57
2022/09/09 00:35:51;;;;;;;1.52;0.57;;;16.00;99.90;;;;;;5022820;28;20456;-57
2022/09/09 00:38:41;;;;;;;1.98;0.80;;;15.90;99.90;;;;;;5020684;28;20038;-56
2022/09/09 00:41:18;;;;;;;1.95;0.73;;;15.70;99.90;;;;;;5021739;28;20095;-56
2022/09/09 00:44:18;;;;;;;3.45;1.02;;;15.70;99.90;;;;;;5023069;28;20030;-55
2022/09/09 00:46:55;;;;;;;4.18;1.05;;;15.90;99.90;;;;;;5019145;28;20084;-56
2022/09/09 00:49:29;;;;;;;2.47;1.00;;;15.80;99.90;;;;;;5022959;28;21502;-57
2022/09/09 00:52:18;;;;;;;2.20;0.85;;;15.70;99.90;;;;;;5020009;28;20037;-56
2022/09/09 00:55:02;;;;;;;3.15;0.80;;;15.90;99.90;;;;;;5015678;28;20436;-57
2022/09/09 00:57:35;;;;;;;3.45;1.23;;;16.00;99.90;;;;;;5024849;28;20083;-57
2022/09/09 01:00:19;;;;;;;2.83;1.08;;;16.00;99.90;;;;;;5024421;28;20053;-57
2022/09/09 01:03:03;;;;;;;2.67;0.90;;;15.80;99.90;;;;;;5027047;28;20434;-56
2022/09/09 01:05:32;;;;;;;3.20;1.08;;;15.80;99.90;;;;;;5025103;28;20048;-57
2022/09/09 01:08:00;;;;;;;3.72;1.00;;;15.90;99.90;;;;;;5022337;28;20027;-56
2022/09/09 01:10:49;;;;;;;2.42;0.90;;;15.90;99.90;;;;;;5021946;28;20163;-57
2022/09/09 01:13:30;;;;;;;2.72;1.20;;;15.80;99.90;;;;;;5022093;28;20853;-56
2022/09/09 01:15:59;;;;;;;2.00;1.00;;;15.70;99.90;;;;;;5023620;28;20040;-57
2022/09/09 01:18:28;;;;;;;2.10;1.23;;;15.80;99.90;;;;;;5021735;28;20160;-58
2022/09/09 01:21:04;;;;;;;3.58;1.70;;;15.70;99.90;;;;;;5024803;28;20120;-56
2022/09/09 01:23:48;;;;;;;3.85;1.63;;;15.70;99.90;;;;;;5022253;28;20037;-57
2022/09/09 01:26:35;;;;;;;3.92;1.98;;;15.60;99.90;;;;;;5027894;28;20049;-57
2022/09/09 01:29:00;;;;;;;4.50;2.50;;;15.70;99.90;;;;;;5022623;28;20333;-57
2022/09/09 01:31:31;;;;;;;3.15;2.10;;;15.70;99.90;;;;;;5026866;28;20120;-57
2022/09/09 01:33:56;;;;;;;3.13;2.30;;;15.60;99.90;;;;;;5029994;28;20037;-57
2022/09/09 01:36:35;;;;;;;3.40;2.30;;;15.80;99.90;;;;;;5025084;28;20083;-57
2022/09/09 01:39:00;;;;;;;3.95;2.22;;;15.90;99.90;;;;;;5028034;28;20029;-57
2022/09/09 01:41:26;;;;;;;3.00;2.35;;;15.90;99.90;;;;;;5024065;28;20029;-56
2022/09/09 01:43:54;;;;;;;4.78;1.90;;;16.10;99.90;;;;;;5029845;28;20116;-57
2022/09/09 01:46:22;;;;;;;3.40;2.03;;;15.90;99.90;;;;;;5018025;28;20069;-57
2022/09/09 01:48:49;;;;;;;4.45;2.30;;;16.00;99.90;;;;;;5028972;28;20140;-56
2022/09/09 01:51:18;;;;;;;4.53;1.95;;;16.00;99.90;;;;;;5023068;28;20041;-57
2022/09/09 01:53:45;;;;;;;4.05;2.03;;;16.00;99.90;;;;;;5024839;28;20033;-57
2022/09/09 01:56:31;;;;;;;6.85;1.90;;;15.90;99.90;;;;;;5025391;28;20079;-56
2022/09/09 01:59:00;;;;;;;4.20;1.80;;;15.80;99.90;;;;;;5023750;28;20485;-57
2022/09/09 02:02:00;;;;;;;5.80;1.70;;;15.90;99.90;;;;;;5028095;28;20038;-56
2022/09/09 02:04:37;;;;;;;3.92;2.03;;;15.80;99.90;;;;;;5018265;28;20485;-57
2022/09/09 02:07:12;;;;;;;4.05;1.85;;;15.80;99.90;;;;;;5019885;28;20096;-57
2022/09/09 02:09:40;;;;;;;3.33;1.65;;;15.90;99.90;;;;;;5024885;28;20661;-57
2022/09/09 02:12:14;;;;;;;3.03;1.58;;;16.00;99.90;;;;;;5010070;28;20037;-57
2022/09/09 02:14:46;;;;;;;2.58;1.70;;;16.00;99.90;;;;;;5026338;28;20552;-57
2022/09/09 02:17:17;;;;;;;4.93;1.67;;;15.90;99.90;;;;;;5022678;28;20033;-57
2022/09/09 02:19:49;;;;;;;2.78;1.15;;;16.00;99.90;;;;;;5024150;28;20536;-57
2022/09/09 02:22:18;;;;;;;3.28;1.40;;;15.80;99.90;;;;;;5019969;28;20544;-57
2022/09/09 02:24:45;;;;;;;5.53;1.35;;;15.80;99.90;;;;;;5025309;28;20112;-57
2022/09/09 02:27:13;;;;;;;2.25;1.30;;;15.70;99.90;;;;;;5024229;28;20120;-58
2022/09/09 02:29:41;;;;;;;5.72;1.30;;;15.70;99.90;;;;;;5028210;28;20057;-56
2022/09/09 02:32:11;;;;;;;1.95;0.80;;;15.70;99.90;;;;;;5025912;28;20061;-57
2022/09/09 02:34:42;;;;;;;2.05;1.02;;;15.60;99.90;;;;;;5027037;28;20041;-57
2022/09/09 02:37:10;;;;;;;4.00;1.33;;;15.50;99.90;;;;;;5016693;28;20068;-56
2022/09/09 02:39:36;;;;;;;4.78;1.40;;;15.60;99.90;;;;;;5027310;28;20037;-57
2022/09/09 02:42:03;;;;;;;4.18;1.23;;;15.70;99.90;;;;;;5024457;28;20033;-56
2022/09/09 02:44:29;;;;;;;3.92;1.35;;;15.60;99.90;;;;;;5022533;28;20558;-57
2022/09/09 02:47:24;;;;;;;5.28;1.25;;;15.50;99.90;;;;;;5020649;28;20041;-57
2022/09/09 02:50:11;;;;;;;5.57;1.20;;;15.40;99.90;;;;;;5010255;28;20033;-57
2022/09/09 02:53:12;;;;;;;3.20;1.30;;;15.40;99.90;;;;;;5006616;28;20026;-57
2022/09/09 02:56:04;;;;;;;8.30;1.75;;;15.40;99.90;;;;;;5028137;28;20463;-57
2022/09/09 02:58:30;;;;;;;5.32;1.20;;;15.60;99.90;;;;;;5014909;28;20029;-57
2022/09/09 03:00:57;;;;;;;5.65;1.50;;;15.60;99.90;;;;;;5027986;28;20029;-56
2022/09/09 03:03:23;;;;;;;4.90;1.23;;;15.60;99.90;;;;;;5028258;28;20589;-57
2022/09/09 03:05:49;;;;;;;2.78;1.23;;;15.70;99.90;;;;;;5007066;28;20033;-57
2022/09/09 03:08:15;;;;;;;7.00;1.60;;;15.70;99.90;;;;;;5025817;28;20049;-57
2022/09/09 03:10:41;;;;;;;2.90;1.17;;;15.60;99.90;;;;;;5025904;28;20029;-57
2022/09/09 03:13:07;;;;;;;5.03;1.58;;;15.60;99.90;;;;;;5024095;28;20025;-57
2022/09/09 03:15:33;;;;;;;6.43;1.40;;;15.70;99.90;;;;;;5030713;28;20384;-57
2022/09/09 03:18:00;;;;;;;6.32;1.70;;;15.70;99.90;;;;;;5026316;28;20036;-57
2022/09/09 03:20:26;;;;;;;5.03;1.20;;;15.60;99.90;;;;;;5026317;28;20133;-56
2022/09/09 03:22:53;;;;;;;4.28;1.50;;;15.80;99.90;;;;;;5025203;28;20078;-56
2022/09/09 03:25:19;;;;;;;5.53;1.25;;;15.80;99.90;;;;;;5025776;28;20472;-57
2022/09/09 03:27:44;;;;;;;8.07;1.50;;;15.80;99.90;;;;;;5024863;28;20087;-56
2022/09/09 03:30:10;;;;;;;5.07;1.40;;;15.80;99.90;;;;;;5024981;28;20060;-57
2022/09/09 03:32:36;;;;;;;4.35;1.15;;;15.80;99.90;;;;;;5025250;28;20118;-56
2022/09/09 03:35:02;;;;;;;5.50;1.52;;;15.80;99.90;;;;;;5025322;28;20033;-56
2022/09/09 03:37:28;;;;;;;4.32;1.48;;;15.80;99.90;;;;;;5027145;28;20057;-56
2022/09/09 03:39:54;;;;;;;8.77;1.95;;;15.80;99.90;;;;;;5020264;28;20314;-57
2022/09/09 03:42:20;;;;;;;3.17;1.42;;;15.90;99.90;;;;;;5021189;28;20037;-57
2022/09/09 03:44:50;;;;;;;4.35;1.70;;;15.90;99.90;;;;;;5027069;28;20037;-57
2022/09/09 03:47:21;;;;;;;3.25;1.30;;;15.90;99.90;;;;;;5017299;28;20073;-57
2022/09/09 03:49:48;;;;;;;6.93;1.60;;;15.90;99.90;;;;;;5024133;28;20068;-56
2022/09/09 03:52:14;;;;;;;5.85;1.50;;;15.90;99.90;;;;;;5014755;28;20038;-56
2022/09/09 03:54:41;;;;;;;3.28;1.50;;;15.90;99.90;;;;;;5025504;28;21423;-57
2022/09/09 03:57:06;;;;;;;5.88;1.38;;;15.90;99.90;;;;;;5023328;28;20029;-56
2022/09/09 03:59:32;;;;;;;5.95;1.60;;;15.90;99.90;;;;;;5024336;28;20034;-57
2022/09/09 04:01:58;;;;;;;7.85;1.63;;;15.80;99.90;;;;;;5025592;28;20064;-57
2022/09/09 04:04:25;;;;;;;5.90;1.30;;;15.90;99.90;;;;;;5021244;28;20440;-57
2022/09/09 04:06:51;;;;;;;4.72;1.40;;;15.80;99.90;;;;;;5024302;28;20025;-57
2022/09/09 04:09:17;;;;;;;8.50;2.15;;;15.80;99.90;;;;;;5024101;28;20048;-57
2022/09/09 04:11:42;;;;;;;8.13;1.70;;;15.80;99.90;;;;;;5026504;28;20037;-57
2022/09/09 04:14:08;;;;;;;4.18;1.60;;;16.00;99.90;;;;;;5022080;28;20061;-57
2022/09/09 04:16:37;;;;;;;7.32;1.80;;;15.80;99.90;;;;;;5027107;28;20041;-56
2022/09/09 04:19:04;;;;;;;7.55;1.58;;;15.90;99.90;;;;;;5027189;28;20388;-57
2022/09/09 04:21:30;;;;;;;7.13;1.85;;;15.90;99.90;;;;;;5007033;28;20100;-57
2022/09/09 04:23:56;;;;;;;5.95;1.80;;;16.00;99.90;;;;;;5029115;28;20056;-56
2022/09/09 04:26:22;;;;;;;4.38;1.45;;;16.00;99.90;;;;;;5023381;28;20107;-57
2022/09/09 04:28:47;;;;;;;7.55;2.00;;;15.80;99.90;;;;;;5020597;28;20049;-57
2022/09/09 04:31:23;;;;;;;7.95;2.25;;;15.90;99.90;;;;;;5022367;28;20037;-56
2022/09/09 04:33:49;;;;;;;7.22;1.63;;;16.00;99.90;;;;;;5021203;28;20029;-56
2022/09/09 04:36:15;;;;;;;6.53;1.92;;;;;;;;;;5018642;28;20396;-57
2022/09/09 04:38:41;;;;;;;8.10;1.75;;;16.10;99.90;;;;;;5027255;28;20443;-57
2022/09/09 04:41:07;;;;;;;5.97;2.03;;;15.90;99.90;;;;;;5021469;28;20022;-56
2022/09/09 04:43:34;;;;;;;8.38;1.73;;;16.10;99.90;;;;;;5019778;28;20500;-57
2022/09/09 04:46:00;;;;;;;8.45;2.13;;;16.10;99.90;;;;;;5017832;28;20583;-56
2022/09/09 04:48:27;;;;;;;6.22;1.98;;;16.10;99.90;;;;;;5023324;28;20081;-56
2022/09/09 04:51:04;;;;;;;6.72;2.05;;;16.00;99.90;;;;;;5023809;28;20728;-56
2022/09/09 04:53:31;;;;;;;6.25;1.98;;;16.00;99.90;;;;;;5027372;28;20103;-57
2022/09/09 04:56:12;;;;;;;3.42;1.65;;;15.90;99.90;;;;;;5030191;28;20041;-57
2022/09/09 04:58:39;;;;;;;6.45;1.90;;;15.90;99.90;;;;;;5028383;28;20033;-56
2022/09/09 05:01:13;;;;;;;6.38;2.03;;;15.90;99.90;;;;;;5030121;28;20107;-56
2022/09/09 05:03:39;;;;;;;4.88;2.00;;;16.00;99.90;;;;;;5025335;28;20662;-57
2022/09/09 05:06:10;;;;;;;6.70;2.10;;;15.90;99.90;;;;;;5029887;28;20030;-57
2022/09/09 05:08:40;;;;;;;4.45;1.77;;;15.80;99.90;;;;;;5026976;28;20084;-57
2022/09/09 05:11:24;;;;;;;10.80;2.00;;;15.80;99.90;;;;;;5030091;28;20033;-57
2022/09/09 05:13:50;;;;;;;6.95;1.75;;;15.90;99.90;;;;;;5026554;28;20040;-57
2022/09/09 05:16:17;;;;;;;7.45;2.20;;;15.90;99.90;;;;;;5023084;28;20188;-57
2022/09/09 05:18:43;;;;;;;5.85;2.35;;;15.90;99.90;;;;;;5024792;28;20037;-56
2022/09/09 05:21:09;;;;;;;6.25;2.10;;;16.00;99.90;;;;;;5030677;28;20041;-57
2022/09/09 05:23:35;;;;;;;3.95;2.13;;;16.00;99.90;;;;;;5024712;28;20038;-56
2022/09/09 05:26:01;;;;;;;8.73;2.33;;;15.90;99.90;;;;;;5027379;28;20439;-56
2022/09/09 05:28:28;;;;;;;6.30;1.65;;;15.90;99.90;;;;;;5017478;28;21289;-57
2022/09/09 05:31:03;;;;;;;12.23;2.45;;;15.80;99.90;;;;;;5029287;28;20128;-56
2022/09/09 05:33:29;;;;;;;7.32;2.28;;;15.80;99.90;;;;;;5027888;28;20160;-56
2022/09/09 05:35:58;;;;;;;8.70;1.90;;;15.80;99.90;;;;;;5009656;28;20466;-57
2022/09/09 05:38:25;;;;;;;9.13;2.67;;;15.90;99.90;;;;;;5030677;28;20087;-57
2022/09/09 05:40:52;;;;;;;6.38;2.10;;;16.00;99.90;;;;;;5027539;28;20124;-56
2022/09/09 05:43:19;;;;;;;9.98;2.00;;;16.00;99.90;;;;;;5021975;28;20045;-57
2022/09/09 05:45:47;;;;;;;6.85;2.15;;;16.00;99.90;;;;;;5019593;28;20029;-57
2022/09/09 05:48:14;;;;;;;7.32;2.38;;;16.00;99.90;;;;;;5020575;28;20044;-56
2022/09/09 05:50:40;;;;;;;10.05;2.15;;;16.10;99.90;;;;;;5016252;28;20037;-56
2022/09/09 05:53:06;;;;;;;9.15;2.25;;;16.10;99.90;;;;;;5023114;28;20483;-55
2022/09/09 05:55:31;;;;;;;6.97;2.50;;;16.30;99.90;;;;;;5024924;28;20065;-57
2022/09/09 05:57:57;;;;;;;8.50;2.70;;;16.40;99.90;;;;;;5025574;28;20040;-57
2022/09/09 06:00:23;;;;;;;8.43;2.42;;;16.40;99.90;;;;;;5023704;28;20056;-57
2022/09/09 06:02:52;;;;;;;10.25;2.50;;;16.40;99.90;;;;;;5030334;28;20061;-57
2022/09/09 06:05:18;;;;;;;14.18;2.55;;;16.40;99.90;;;;;;5027239;28;20041;-57
2022/09/09 06:07:44;;;;;;;11.45;2.78;;;16.30;99.90;;;;;;5024855;28;20276;-56
2022/09/09 06:10:13;;;;;;;11.32;2.60;;;16.30;99.90;;;;;;5028710;28;20037;-57
2022/09/09 06:12:39;;;;;;;8.80;2.38;;;16.30;99.90;;;;;;5027483;28;20041;-57
2022/09/09 06:15:05;;;;;;;7.20;2.30;;;16.30;99.90;;;;;;5026116;28;20631;-56
2022/09/09 06:17:31;;;;;;;9.13;2.53;;;16.30;99.90;;;;;;5018823;28;20577;-57
2022/09/09 06:19:56;;;;;;;6.18;2.10;;;16.40;99.90;;;;;;5022498;28;20036;-56
2022/09/09 06:22:22;;;;;;;7.68;2.10;;;16.40;99.90;;;;;;5020680;28;20046;-57
2022/09/09 06:24:48;;;;;;;7.63;2.45;;;16.40;99.90;;;;;;5029840;28;20029;-57
2022/09/09 06:27:13;;;;;;;10.27;2.30;;;16.40;99.90;;;;;;5018236;28;20081;-57
2022/09/09 06:29:39;;;;;;;12.02;2.13;;;16.30;99.90;;;;;;5007995;28;20068;-55
2022/09/09 06:32:05;;;;;;;8.15;2.03;;;16.40;99.90;;;;;;5016521;28;20096;-56
2022/09/09 06:34:30;;;;;;;9.43;2.35;;;16.30;99.90;;;;;;5027630;28;20041;-57
2022/09/09 06:36:58;;;;;;;13.23;2.50;;;16.40;99.90;;;;;;5025265;28;20036;-57
2022/09/09 06:39:23;;;;;;;5.78;2.08;;;16.60;99.90;;;;;;5025443;28;20041;-57
2022/09/09 06:41:52;;;;;;;10.98;2.30;;;16.60;99.90;;;;;;5023867;28;20134;-57
2022/09/09 06:44:18;;;;;;;9.40;2.42;;;16.70;99.90;;;;;;5010364;28;20068;-57
2022/09/09 06:46:46;;;;;;;11.23;2.47;;;16.70;99.90;;;;;;5025496;28;20045;-56
2022/09/09 06:49:12;;;;;;;9.00;2.33;;;16.80;99.90;;;;;;5023076;28;20160;-57
2022/09/09 06:51:43;;;;;;;8.10;1.98;;;16.90;99.90;;;;;;5026388;28;20476;-57
2022/09/09 06:54:10;;;;;;;13.98;2.28;;;17.00;99.90;;;;;;5025877;28;20039;-55
2022/09/09 06:56:40;;;;;;;10.68;2.47;;;17.10;99.90;;;;;;5025809;28;20098;-57
2022/09/09 06:59:09;;;;;;;5.15;1.90;;;17.20;99.90;;;;;;5020742;28;20029;-56
2022/09/09 07:01:37;;;;;;;8.55;2.45;;;17.30;99.90;;;;;;5020324;28;20136;-56
2022/09/09 07:04:04;;;;;;;8.02;2.42;;;17.40;99.90;;;;;;5022645;28;20634;-57
2022/09/09 07:06:32;;;;;;;6.88;1.75;;;17.40;99.90;;;;;;5023724;28;20037;-57
2022/09/09 07:09:00;;;;;;;10.70;2.13;;;17.50;99.90;;;;;;5027741;28;20507;-58
2022/09/09 07:11:29;;;;;;;10.70;2.10;;;17.50;99.90;;;;;;5019433;28;20709;-57
2022/09/09 07:13:56;;;;;;;6.55;1.80;;;17.50;99.90;;;;;;5023233;28;20052;-57
2022/09/09 07:16:25;;;;;;;8.93;2.10;;;17.50;99.90;;;;;;5020372;28;20721;-57
2022/09/09 07:18:52;;;;;;;7.22;1.80;;;17.60;99.90;;;;;;5016121;28;20120;-58
2022/09/09 07:21:18;;;;;;;9.75;1.90;;;17.70;99.90;;;;;;5016252;28;20461;-57
2022/09/09 07:23:44;;;;;;;6.68;1.80;;;17.80;99.90;;;;;;5027392;28;20536;-58
2022/09/09 07:26:13;;;;;;;7.20;1.65;;;17.80;99.90;;;;;;5021662;28;20055;-57
2022/09/09 07:28:39;;;;;;;7.15;1.67;;;17.80;99.90;;;;;;5019961;28;20082;-56
2022/09/09 07:31:05;;;;;;;9.07;1.95;;;17.80;99.90;;;;;;5008053;28;20037;-58
2022/09/09 07:33:33;;;;;;;13.43;2.00;;;17.80;99.90;;;;;;5016495;28;20505;-57
2022/09/09 07:36:10;;;;;;;6.75;1.60;;;17.90;99.90;;;;;;5024693;28;20474;-57
2022/09/09 07:38:47;;;;;;;8.82;1.90;;;17.90;99.90;;;;;;5020862;28;20388;-57
2022/09/09 07:41:20;;;;;;;95.38;71.90;;;17.90;99.90;;;;;;5023918;28;20037;-58
2022/09/09 07:43:47;;;;;;;10.85;2.97;;;17.90;99.90;;;;;;5017911;28;20037;-57
2022/09/09 07:46:14;;;;;;;9.05;1.80;;;18.00;99.90;;;;;;5014852;28;20073;-56
2022/09/09 07:48:51;;;;;;;7.57;2.00;;;17.90;99.90;;;;;;5020520;28;20041;-57
2022/09/09 07:51:19;;;;;;;8.52;2.22;;;17.90;99.90;;;;;;5024287;28;20040;-57
2022/09/09 07:53:46;;;;;;;8.40;2.42;;;17.70;99.90;;;;;;5019605;28;20049;-58
2022/09/09 07:56:16;;;;;;;9.18;1.92;;;17.70;99.90;;;;;;5021344;28;20029;-60
2022/09/09 07:58:42;;;;;;;8.52;1.75;;;17.90;99.90;;;;;;5019963;28;20045;-57
2022/09/09 08:01:13;;;;;;;9.25;1.70;;;18.00;99.90;;;;;;5021581;28;20091;-57
2022/09/09 08:03:39;;;;;;;8.82;1.65;;;18.00;99.90;;;;;;5017274;28;20555;-58
2022/09/09 08:06:07;;;;;;;10.63;2.17;;;18.00;99.90;;;;;;5016200;28;20041;-56
2022/09/09 08:08:34;;;;;;;8.68;1.70;;;18.10;99.90;;;;;;5021509;28;20052;-57
2022/09/09 08:11:09;;;;;;;17.40;2.17;;;18.10;99.90;;;;;;5027071;28;20502;-57
2022/09/09 08:13:36;;;;;;;10.15;1.90;;;18.20;99.90;;;;;;5020265;28;20043;-57
2022/09/09 08:16:30;;;;;;;10.57;1.60;;;18.30;99.90;;;;;;5022386;28;20033;-57
2022/09/09 08:18:56;;;;;;;;;;;18.60;99.90;;;;;;5019970;28;20041;-58
2022/09/09 08:21:27;;;;;;;7.53;1.55;;;18.60;99.90;;;;;;5020813;28;19931;-57
2022/09/09 08:23:54;;;;;;;10.82;1.90;;;18.80;99.90;;;;;;5021166;28;20584;-58
2022/09/09 08:26:31;;;;;;;5.32;1.20;;;18.90;99.90;;;;;;5019565;28;20108;-58
2022/09/09 08:28:59;;;;;;;6.78;1.85;;;19.10;99.90;;;;;;5026504;28;20032;-57
2022/09/09 08:31:30;;;;;;;5.85;1.23;;;19.10;99.90;;;;;;5022297;28;20408;-57
2022/09/09 08:33:56;;;;;;;8.95;1.60;;;19.20;99.90;;;;;;5025714;28;20449;-58
2022/09/09 08:36:25;;;;;;;7.60;1.65;;;19.30;99.90;;;;;;5025267;28;20116;-58
2022/09/09 08:38:54;;;;;;;9.10;1.95;;;19.20;99.90;;;;;;5031384;28;20025;-58
2022/09/09 08:42:00;;;;;;;9.63;3.10;;;19.20;99.90;;;;;;5021880;28;20061;-59
2022/09/09 08:44:27;;;;;;;8.98;1.60;;;19.20;99.90;;;;;;5024414;28;20044;-58
2022/09/09 08:47:13;;;;;;;7.22;1.80;;;19.20;99.90;;;;;;5016959;28;20049;-59
2022/09/09 08:50:16;;;;;;;6.82;1.60;;;18.90;99.90;;;;;;5022258;28;20045;-59
2022/09/09 08:53:12;;;;;;;5.68;1.45;;;18.80;99.90;;;;;;5026832;28;20103;-59
2022/09/09 08:55:58;;;;;;;6.53;1.63;;;18.90;99.90;;;;;;5019301;28;20113;-59
2022/09/09 08:58:31;;;;;;;6.53;1.42;;;18.90;99.90;;;;;;5026327;28;20584;-59
2022/09/09 09:01:08;;;;;;;6.55;1.60;;;18.90;99.90;;;;;;5026227;28;20029;-59
2022/09/09 09:03:52;;;;;;;9.13;1.30;;;19.00;99.90;;;;;;5019664;28;20420;-58
2022/09/09 09:06:50;;;;;;;6.28;1.30;;;19.00;99.90;;;;;;5028000;28;20512;-57
2022/09/09 09:09:32;;;;;;;9.15;1.63;;;18.90;99.90;;;;;;5024584;28;20104;-59
2022/09/09 09:12:01;;;;;;;7.32;1.75;;;18.90;99.90;;;;;;5023053;28;20026;-59
2022/09/09 09:14:34;;;;;;;5.10;1.17;;;18.80;99.90;;;;;;5019406;28;20045;-59
2022/09/09 09:17:12;;;;;;;8.93;1.60;;;18.80;99.90;;;;;;5025147;28;20036;-59
2022/09/09 09:19:40;;;;;;;6.35;1.40;;;18.90;99.90;;;;;;5028681;28;20390;-59
2022/09/09 09:22:22;;;;;;;3.75;1.30;;;18.80;99.90;;;;;;5027436;28;20041;-60
2022/09/09 09:24:57;;;;;;;6.90;1.42;;;18.90;99.90;;;;;;5031742;28;20048;-59
2022/09/09 09:27:34;;;;;;;8.02;1.45;;;18.90;99.90;;;;;;5030979;28;20041;-59
2022/09/09 09:30:02;;;;;;;5.93;1.30;;;18.80;99.90;;;;;;5029234;28;20045;-58
2022/09/09 09:32:33;;;;;;;6.30;1.35;;;19.00;99.90;;;;;;5020891;28;20060;-58
2022/09/09 09:35:04;;;;;;;5.53;1.35;;;19.00;99.90;;;;;;5026067;28;20029;-59
2022/09/09 09:37:34;;;;;;;7.00;1.60;;;19.10;99.90;;;;;;5023969;28;20057;-59
2022/09/09 09:40:10;;;;;;;7.40;1.60;;;19.30;99.90;;;;;;5023855;28;20608;-59
2022/09/09 09:42:36;;;;;;;6.13;1.52;;;19.60;99.90;;;;;;5011916;28;20045;-60
2022/09/09 09:45:35;;;;;;;7.82;3.95;;;19.80;99.90;;;;;;5002994;28;20034;-59
2022/09/09 09:48:04;;;;;;;6.55;1.45;;;19.90;99.90;;;;;;5004142;28;20096;-59
2022/09/09 09:50:31;;;;;;;7.00;1.50;;;19.90;99.90;;;;;;5024157;28;20529;-59
2022/09/09 09:53:19;;;;;;;5.88;1.48;;;19.90;99.90;;;;;;5022764;28;20510;-58
2022/09/09 09:55:55;;;;;;;6.45;1.60;;;19.90;99.90;;;;;;5026559;28;20045;-59
2022/09/09 09:58:21;;;;;;;3.90;1.30;;;20.00;99.90;;;;;;5008569;28;20042;-59
2022/09/09 10:00:51;;;;;;;7.90;1.30;;;20.00;99.90;;;;;;5023429;28;20045;-58
2022/09/09 10:03:26;;;;;;;5.00;1.13;;;20.10;99.90;;;;;;5025759;28;20041;-59
2022/09/09 10:05:52;;;;;;;5.65;1.42;;;20.20;99.90;;;;;;5020954;28;20033;-59
2022/09/09 10:08:18;;;;;;;6.55;1.17;;;20.30;99.90;;;;;;5003193;28;20029;-59
2022/09/09 10:10:58;;;;;;;5.72;1.40;;;20.30;99.90;;;;;;5024337;28;20030;-59
2022/09/09 10:13:49;;;;;;;9.45;1.20;;;20.30;99.90;;;;;;5023452;28;20042;-59
2022/09/09 10:16:52;;;;;;;4.15;1.10;;;20.30;99.90;;;;;;5021941;28;20156;-59
2022/09/09 10:19:42;;;;;;;5.45;1.10;;;20.10;99.90;;;;;;5020727;28;20041;-59
2022/09/09 10:22:27;;;;;;;3.67;1.00;;;20.00;99.90;;;;;;5018742;28;20041;-59
2022/09/09 10:25:07;;;;;;;6.90;1.30;;;19.80;99.90;;;;;;5024913;28;20041;-60
2022/09/09 10:27:42;;;;;;;4.93;1.27;;;19.80;99.90;;;;;;5017354;28;20053;-59
2022/09/09 10:30:22;;;;;;;7.40;1.58;;;19.70;99.90;;;;;;5021778;28;20038;-59
2022/09/09 10:32:59;;;;;;;4.53;1.30;;;19.70;99.90;;;;;;5015054;28;20029;-59
2022/09/09 10:36:05;;;;;;;3.88;1.05;;;19.80;99.90;;;;;;5006263;28;20037;-60
2022/09/09 10:38:34;;;;;;;3.05;1.10;;;19.80;99.90;;;;;;5017489;28;20072;-60
2022/09/09 10:41:17;;;;;;;4.43;1.20;;;19.80;99.90;;;;;;5028175;28;20037;-58
2022/09/09 10:43:55;;;;;;;6.70;1.75;;;20.00;99.90;;;;;;5017302;28;20615;-59
2022/09/09 10:46:23;;;;;;;7.50;1.20;;;20.10;99.90;;;;;;5014330;28;20096;-60
2022/09/09 10:49:15;;;;;;;4.78;1.00;;;20.30;99.90;;;;;;5020841;28;20068;-59
2022/09/09 10:52:01;;;;;;;7.15;1.45;;;20.50;99.90;;;;;;5021160;28;20113;-59
2022/09/09 10:54:41;;;;;;;9.23;1.40;;;20.60;99.90;;;;;;5024232;28;20029;-58
2022/09/09 10:57:25;;;;;;;4.65;1.30;;;20.60;99.90;;;;;;5019969;28;20040;-60
2022/09/09 10:59:56;;;;;;;3.97;1.05;;;20.50;99.90;;;;;;5022524;28;20041;-59
2022/09/09 11:02:31;;;;;;;4.82;1.10;;;20.20;99.90;;;;;;5020252;28;20412;-58
2022/09/09 11:05:08;;;;;;;5.32;1.38;;;20.10;99.90;;;;;;5022525;28;20034;-59
2022/09/09 11:07:43;;;;;;;5.63;1.02;;;20.00;99.90;;;;;;5017666;28;20477;-60
2022/09/09 11:10:41;;;;;;;4.30;1.15;;;20.00;99.90;;;;;;5003145;28;20117;-60
2022/09/09 11:13:25;;;;;;;5.63;1.20;;;20.10;99.90;;;;;;5004498;28;20026;-60
2022/09/09 11:16:00;;;;;;;5.25;1.08;;;20.30;99.90;;;;;;5018899;28;20393;-60
2022/09/09 11:18:29;;;;;;;5.88;1.40;;;20.40;99.90;;;;;;5020484;28;20535;-59
2022/09/09 11:21:00;;;;;;;4.53;1.00;;;20.50;99.90;;;;;;4994673;28;20041;-60
2022/09/09 11:23:43;;;;;;;5.90;1.13;;;20.60;99.90;;;;;;5024889;28;20049;-59
2022/09/09 11:26:17;;;;;;;6.40;1.05;;;20.60;99.90;;;;;;5020019;28;20099;-59
2022/09/09 11:29:06;;;;;;;6.68;1.30;;;20.60;99.90;;;;;;5021870;28;20040;-59
2022/09/09 11:31:58;;;;;;;3.80;0.98;;;20.60;99.90;;;;;;4988980;28;20041;-60
2022/09/09 11:35:09;;;;;;;3.83;0.90;;;20.50;99.90;;;;;;5017218;28;20037;-59
2022/09/09 11:38:12;;;;;;;3.88;1.17;;;20.50;99.90;;;;;;5023007;28;20041;-59
2022/09/09 11:40:39;;;;;;;1.50;0.73;;;20.30;99.90;;;;;;5025756;28;20037;-57
2022/09/09 11:43:13;;;;;;;5.35;1.10;;;20.30;99.90;;;;;;5023764;28;20037;-58
2022/09/09 11:45:42;;;;;;;4.32;1.10;;;20.50;99.90;;;;;;5020350;28;20103;-59
2022/09/09 11:48:30;;;;;;;5.20;1.08;;;20.80;99.90;;;;;;5019478;28;20041;-60
2022/09/09 11:51:07;;;;;;;3.60;1.13;;;21.00;99.90;;;;;;5020311;28;20053;-58
2022/09/09 11:53:34;;;;;;;4.63;0.80;;;21.00;99.90;;;;;;5021369;28;20044;-59
2022/09/09 11:56:26;;;;;;;3.67;0.90;;;20.90;99.90;;;;;;5023080;28;20083;-58
2022/09/09 11:59:19;;;;;;;2.92;0.93;;;20.70;99.90;;;;;;5012611;28;20543;-58
2022/09/09 12:01:45;;;;;;;4.30;1.00;;;20.90;99.90;;;;;;5002277;28;20061;-59
2022/09/09 12:04:37;;;;;;;1.90;0.70;;;21.00;99.90;;;;;;5018935;28;20092;-59
2022/09/09 12:07:05;;;;;;;4.53;0.85;;;21.00;99.90;;;;;;5002242;28;20049;-57
2022/09/09 12:09:46;;;;;;;4.25;0.57;;;20.90;99.90;;;;;;5020474;28;20049;-57
2022/09/09 12:12:11;;;;;;;3.47;0.95;;;20.90;99.90;;;;;;5009276;28;20052;-58
2022/09/09 12:14:55;;;;;;;3.70;1.00;;;20.80;99.90;;;;;;5019429;28;20033;-59
2022/09/09 12:17:26;;;;;;;5.70;1.20;;;20.60;99.90;;;;;;5018551;28;20050;-60
2022/09/09 12:20:18;;;;;;;6.20;1.23;;;20.40;99.90;;;;;;5019212;28;20068;-60
2022/09/09 12:23:19;;;;;;;5.85;1.10;;;20.40;99.90;;;;;;5020308;28;20132;-60
2022/09/09 12:25:50;;;;;;;4.70;0.95;;;20.50;99.90;;;;;;5023029;28;20073;-58
2022/09/09 12:28:20;;;;;;;3.50;0.95;;;20.40;99.90;;;;;;5016208;28;20050;-59
2022/09/09 12:31:07;;;;;;;3.10;1.10;;;20.10;99.90;;;;;;5023937;28;20481;-60
2022/09/09 12:33:42;;;;;;;5.60;0.98;;;20.10;99.90;;;;;;5023250;28;20037;-60
2022/09/09 12:36:32;;;;;;;5.05;1.20;;;19.80;99.90;;;;;;5021278;28;20520;-60
2022/09/09 12:39:10;;;;;;;5.53;1.25;;;20.00;99.90;;;;;;5017050;28;20115;-60
2022/09/09 12:41:36;;;;;;;8.10;1.40;;;20.30;99.90;;;;;;5030239;28;20044;-60
2022/09/09 12:44:09;;;;;;;4.07;1.10;;;20.20;99.90;;;;;;5020901;28;20037;-59
2022/09/09 12:46:43;;;;;;;5.60;1.42;;;20.00;99.90;;;;;;5014727;28;20559;-60
2022/09/09 12:49:34;;;;;;;4.68;1.15;;;19.80;99.90;;;;;;5019428;28;20030;-60
2022/09/09 12:52:14;;;;;;;3.65;1.10;;;19.40;99.90;;;;;;5021081;28;20040;-60
2022/09/09 12:54:46;;;;;;;4.90;1.30;;;19.40;99.90;;;;;;5020091;28;20111;-59
2022/09/09 12:57:13;;;;;;;5.20;1.30;;;19.60;99.90;;;;;;5024214;28;20034;-60
2022/09/09 12:59:41;;;;;;;2.67;1.08;;;19.70;99.90;;;;;;5022187;28;20083;-60
2022/09/09 13:02:24;;;;;;;3.70;1.20;;;19.70;99.90;;;;;;5018306;28;20596;-59
2022/09/09 13:04:50;;;;;;;4.57;1.20;;;19.60;99.90;;;;;;5015753;28;20044;-59
2022/09/09 13:07:18;;;;;;;4.13;1.30;;;19.60;99.90;;;;;;5020556;28;20121;-60
2022/09/09 13:09:45;;;;;;;3.90;1.48;;;19.50;99.90;;;;;;5017819;28;20037;-60
2022/09/09 13:12:23;;;;;;;2.83;0.90;;;19.70;99.90;;;;;;5017358;28;20041;-60
2022/09/09 13:14:52;;;;;;;4.57;0.98;;;19.80;99.90;;;;;;5021238;28;20506;-59
2022/09/09 13:17:22;;;;;;;2.75;1.13;;;20.00;99.90;;;;;;5023973;28;20038;-59